createdAt,value
2022-10-11T11:21:00.275Z,3431.00
2022-10-11T11:21:10.273Z,3608.00
2022-10-11T11:22:43.752Z,2718.00
2022-10-11T11:22:53.720Z,2727.00
2022-10-11T11:23:03.739Z,2705.00
2022-10-11T11:23:13.724Z,2715.00
2022-10-11T11:23:23.723Z,2724.00
2022-10-11T11:23:33.754Z,2737.00
2022-10-11T11:23:43.723Z,2753.00
2022-10-11T11:23:53.740Z,2747.00
2022-10-11T11:24:03.725Z,2752.00
2022-10-11T11:24:13.726Z,2759.00
2022-10-11T11:24:23.743Z,2740.00
2022-10-11T11:24:33.738Z,2749.00
2022-10-11T11:24:43.730Z,2758.00
2022-10-11T11:24:53.727Z,2762.00
2022-10-11T11:25:03.734Z,2765.00
2022-10-11T11:25:13.735Z,2762.00
2022-10-11T11:25:23.750Z,2784.00
2022-10-11T11:25:33.734Z,2789.00
2022-10-11T11:25:45.052Z,2813.00
2022-10-11T11:25:53.737Z,2827.00
2022-10-11T11:26:04.082Z,2846.00
2022-10-11T11:26:13.736Z,2868.00
2022-10-11T11:26:23.736Z,2899.00
2022-10-11T11:26:33.758Z,2883.00
2022-10-11T11:26:44.546Z,2983.00
2022-10-11T11:26:53.746Z,2779.00
2022-10-11T11:27:03.738Z,3286.00
2022-10-11T11:27:13.740Z,3593.00
2022-10-11T11:27:23.740Z,3378.00
2022-10-11T11:27:33.747Z,3006.00
2022-10-11T11:27:43.755Z,3038.00
2022-10-11T11:27:53.751Z,4025.00
2022-10-11T11:28:03.745Z,3744.00
2022-10-11T11:28:13.776Z,3850.00
2022-10-11T11:28:23.779Z,4520.00
2022-10-11T11:28:33.826Z,4345.00
2022-10-11T11:28:43.793Z,4024.00
2022-10-11T11:28:53.836Z,3584.00
2022-10-11T11:29:03.753Z,3446.00
2022-10-11T11:29:13.749Z,3344.00
2022-10-11T11:29:23.756Z,3309.00
2022-10-11T11:29:33.754Z,3273.00
2022-10-11T11:29:43.752Z,3218.00
2022-10-11T11:29:55.650Z,3176.00
2022-10-11T11:30:03.751Z,3147.00
2022-10-11T11:30:13.814Z,3090.00
2022-10-11T11:30:23.882Z,3051.00
2022-10-11T11:30:33.783Z,3032.00
2022-10-11T11:30:43.757Z,2988.00
2022-10-11T11:30:53.761Z,2966.00
2022-10-11T11:31:04.191Z,2982.00
2022-10-11T11:31:13.769Z,2997.00
2022-10-11T11:31:23.758Z,2937.00
2022-10-11T11:31:33.767Z,2916.00
2022-10-11T11:31:43.758Z,2897.00
2022-10-11T11:31:53.774Z,2865.00
2022-10-11T11:32:03.760Z,2827.00
2022-10-11T11:32:13.783Z,2776.00
2022-10-11T11:32:23.767Z,2752.00
2022-10-11T11:32:33.764Z,2735.00
2022-10-11T11:32:45.812Z,2703.00
2022-10-11T11:32:53.813Z,2664.00
2022-10-11T11:33:03.764Z,2635.00
2022-10-11T11:33:13.777Z,2624.00
2022-10-11T11:33:23.765Z,2611.00
2022-10-11T11:33:33.769Z,2593.00
2022-10-11T11:33:48.480Z,2585.00
2022-10-11T11:33:54.769Z,2593.00
2022-10-11T11:34:03.767Z,2601.00
2022-10-11T11:34:13.783Z,2603.00
2022-10-11T11:34:23.773Z,2610.00
2022-10-11T11:34:33.775Z,2608.00
2022-10-11T11:34:43.772Z,2608.00
2022-10-11T11:34:53.792Z,2611.00
2022-10-11T11:35:03.774Z,2608.00
2022-10-11T11:35:13.784Z,2611.00
2022-10-11T11:35:23.778Z,2613.00
2022-10-11T11:35:33.775Z,2615.00
2022-10-11T11:35:43.775Z,2615.00
2022-10-11T11:35:53.782Z,2609.00
2022-10-11T11:36:04.174Z,2600.00
2022-10-11T11:36:13.791Z,2609.00
2022-10-11T11:36:23.783Z,2617.00
2022-10-11T11:36:33.780Z,2627.00
2022-10-11T11:36:43.781Z,2625.00
2022-10-11T11:36:53.777Z,2630.00
2022-10-11T11:37:03.779Z,2639.00
2022-10-11T11:37:13.800Z,2658.00
2022-10-11T11:37:23.787Z,2668.00
2022-10-11T11:37:33.782Z,2669.00
2022-10-11T11:37:43.785Z,2673.00
2022-10-11T11:38:00.202Z,2681.00
2022-10-11T11:38:06.505Z,2690.00
2022-10-11T11:38:13.788Z,2696.00
2022-10-11T11:38:28.568Z,2711.00
2022-10-11T11:38:34.785Z,2727.00
2022-10-11T11:38:43.791Z,2739.00
2022-10-11T11:38:53.814Z,2741.00
2022-10-11T11:39:03.785Z,2750.00
2022-10-11T11:39:13.786Z,2756.00
2022-10-11T11:39:23.808Z,2760.00
2022-10-11T11:39:33.790Z,2765.00
2022-10-11T11:39:43.804Z,2773.00
2022-10-11T11:39:53.786Z,2772.00
2022-10-11T11:40:03.788Z,2778.00
2022-10-11T11:40:13.874Z,2789.00
2022-10-11T11:40:23.787Z,2804.00
2022-10-11T11:40:33.792Z,2821.00
2022-10-11T11:40:43.810Z,2838.00
2022-10-11T11:40:53.787Z,2845.00
2022-10-11T11:41:04.182Z,2851.00
2022-10-11T11:41:13.790Z,2853.00
2022-10-11T11:41:23.790Z,2848.00
2022-10-11T11:41:33.790Z,2838.00
2022-10-11T11:41:43.814Z,2830.00
2022-10-11T11:41:53.795Z,2826.00
2022-10-11T11:42:03.794Z,2833.00
2022-10-11T11:42:13.793Z,2838.00
2022-10-11T11:42:23.798Z,2840.00
2022-10-11T11:42:33.797Z,2849.00
2022-10-11T11:42:43.815Z,2869.00
2022-10-11T11:42:53.799Z,2899.00
2022-10-11T11:43:03.800Z,2927.00
2022-10-11T11:43:13.806Z,2944.00
2022-10-11T11:43:23.798Z,2965.00
2022-10-11T11:43:33.798Z,2988.00
2022-10-11T11:43:43.814Z,2985.00
2022-10-11T11:43:53.801Z,2985.00
2022-10-11T11:44:03.810Z,2983.00
2022-10-11T11:44:13.801Z,2976.00
2022-10-11T11:44:27.285Z,2977.00
2022-10-11T11:44:33.803Z,2966.00
2022-10-11T11:44:43.805Z,2958.00
2022-10-11T11:44:53.821Z,2958.00
2022-10-11T11:45:03.806Z,2967.00
2022-10-11T11:45:13.807Z,2985.00
2022-10-11T11:45:23.808Z,3004.00
2022-10-11T11:45:33.809Z,2997.00
2022-10-11T11:45:43.811Z,2996.00
2022-10-11T11:45:53.822Z,2998.00
2022-10-11T11:46:03.818Z,3017.00
2022-10-11T11:46:13.811Z,3032.00
2022-10-11T11:46:23.814Z,3055.00
2022-10-11T11:46:33.812Z,3061.00
2022-10-11T11:46:43.814Z,3052.00
2022-10-11T11:46:53.815Z,3074.00
2022-10-11T11:47:03.832Z,3100.00
2022-10-11T11:47:13.817Z,3119.00
2022-10-11T11:47:23.814Z,3135.00
2022-10-11T11:47:33.815Z,3159.00
2022-10-11T11:47:43.821Z,3187.00
2022-10-11T11:47:53.816Z,3226.00
2022-10-11T11:48:03.835Z,3246.00
2022-10-11T11:48:13.825Z,3251.00
2022-10-11T11:48:23.847Z,3257.00
2022-10-11T11:48:33.823Z,3251.00
2022-10-11T11:48:43.828Z,3251.00
2022-10-11T11:48:53.824Z,3242.00
2022-10-11T11:49:03.827Z,3234.00
2022-10-11T11:49:13.844Z,3218.00
2022-10-11T11:49:23.822Z,3190.00
2022-10-11T11:49:33.868Z,3170.00
2022-10-11T11:49:53.828Z,3146.00
2022-10-11T11:50:03.831Z,3129.00
2022-10-11T11:50:13.869Z,3111.00
2022-10-11T11:50:23.841Z,3095.00
2022-10-11T11:50:34.445Z,3076.00
2022-10-11T11:50:43.831Z,3065.00
2022-10-11T11:50:53.828Z,3068.00
2022-10-11T11:51:04.191Z,3076.00
2022-10-11T11:51:13.837Z,3079.00
2022-10-11T11:51:26.514Z,3083.00
2022-10-11T11:51:33.837Z,3085.00
2022-10-11T11:51:43.829Z,3067.00
2022-10-11T11:51:53.842Z,3055.00
2022-10-11T11:52:03.834Z,3042.00
2022-10-11T11:52:13.834Z,3037.00
2022-10-11T11:52:23.832Z,3039.00
2022-10-11T11:52:33.858Z,3025.00
2022-10-11T11:52:43.836Z,3015.00
2022-10-11T11:52:53.841Z,2987.00
2022-10-11T11:53:03.837Z,2975.00
2022-10-11T11:53:13.836Z,2961.00
2022-10-11T11:53:23.838Z,2959.00
2022-10-11T11:53:33.852Z,2954.00
2022-10-11T11:53:43.837Z,2957.00
2022-10-11T11:53:53.849Z,2957.00
2022-10-11T11:54:03.847Z,2979.00
2022-10-11T11:54:13.840Z,2989.00
2022-10-11T11:54:23.842Z,3003.00
2022-10-11T11:54:33.870Z,3008.00
2022-10-11T11:54:43.852Z,3021.00
2022-10-11T11:54:53.849Z,3025.00
2022-10-11T11:55:04.327Z,3046.00
2022-10-11T11:55:13.846Z,3060.00
2022-10-11T11:55:23.854Z,3075.00
2022-10-11T11:55:33.864Z,3082.00
2022-10-11T11:55:43.848Z,3087.00
2022-10-11T11:55:53.851Z,3092.00
2022-10-11T11:56:03.850Z,3103.00
2022-10-11T11:56:13.850Z,3109.00
2022-10-11T11:56:23.852Z,3120.00
2022-10-11T11:56:33.872Z,3135.00
2022-10-11T11:56:43.853Z,3144.00
2022-10-11T11:56:53.854Z,3144.00
2022-10-11T11:57:03.860Z,3151.00
2022-10-11T11:57:13.855Z,3158.00
2022-10-11T11:57:23.852Z,3157.00
2022-10-11T11:57:33.854Z,3162.00
2022-10-11T11:57:43.866Z,3146.00
2022-10-11T11:57:53.862Z,3117.00
2022-10-11T11:58:07.180Z,3086.00
2022-10-11T11:58:13.867Z,3058.00
2022-10-11T11:58:23.859Z,3047.00
2022-10-11T11:58:33.863Z,3025.00
2022-10-11T11:58:43.866Z,3014.00
2022-10-11T11:58:53.860Z,3004.00
2022-10-11T11:59:03.879Z,2997.00
2022-10-11T11:59:13.862Z,2978.00
2022-10-11T11:59:23.867Z,2982.00
2022-10-11T11:59:33.864Z,2969.00
2022-10-11T11:59:43.866Z,2972.00
2022-10-11T11:59:53.865Z,2973.00
2022-10-11T12:00:03.882Z,2970.00
2022-10-11T12:00:13.866Z,2968.00
2022-10-11T12:00:23.868Z,2961.00
2022-10-11T12:00:33.872Z,2955.00
2022-10-11T12:00:43.874Z,2953.00
2022-10-11T12:00:53.872Z,2950.00
2022-10-11T12:01:04.323Z,2953.00
2022-10-11T12:01:13.871Z,2955.00
2022-10-11T12:01:27.618Z,2975.00
2022-10-11T12:01:34.971Z,2991.00
2022-10-11T12:01:43.944Z,3009.00
2022-10-11T12:01:53.920Z,3028.00
2022-10-11T12:02:03.965Z,3033.00
2022-10-11T12:02:13.939Z,3039.00
2022-10-11T12:02:23.902Z,3056.00
2022-10-11T12:02:33.873Z,3065.00
2022-10-11T12:02:43.875Z,3090.00
2022-10-11T12:02:53.944Z,3097.00
2022-10-11T12:03:03.901Z,3100.00
2022-10-11T12:03:13.876Z,3101.00
2022-10-11T12:03:23.883Z,3104.00
2022-10-11T12:03:36.824Z,3112.00
2022-10-11T12:03:44.880Z,3115.00
2022-10-11T12:03:53.882Z,3116.00
2022-10-11T12:04:03.911Z,3118.00
2022-10-11T12:04:13.885Z,3120.00
2022-10-11T12:04:23.884Z,3114.00
2022-10-11T12:04:33.885Z,3116.00
2022-10-11T12:04:43.882Z,3098.00
2022-10-11T12:04:53.888Z,3090.00
2022-10-11T12:05:03.900Z,3091.00
2022-10-11T12:05:13.881Z,3098.00
2022-10-11T12:05:23.900Z,3110.00
2022-10-11T12:05:33.895Z,3127.00
2022-10-11T12:05:43.887Z,3138.00
2022-10-11T12:05:53.900Z,3171.00
2022-10-11T12:06:03.899Z,3193.00
2022-10-11T12:06:13.888Z,3219.00
2022-10-11T12:06:23.887Z,3240.00
2022-10-11T12:06:33.887Z,3249.00
2022-10-11T12:07:11.041Z,3264.00
2022-10-11T12:07:15.006Z,3284.00
2022-10-11T12:07:15.772Z,3298.00
2022-10-11T12:07:17.339Z,3314.00
2022-10-11T12:07:23.895Z,3335.00
2022-10-11T12:07:33.892Z,3345.00
2022-10-11T12:07:43.895Z,3354.00
2022-10-11T12:07:53.897Z,3363.00
2022-10-11T12:08:03.922Z,3370.00
2022-10-11T12:08:13.897Z,3377.00
2022-10-11T12:08:23.899Z,3389.00
2022-10-11T12:08:33.897Z,3387.00
2022-10-11T12:08:43.896Z,3399.00
2022-10-11T12:08:53.903Z,3400.00
2022-10-11T12:09:03.918Z,3393.00
2022-10-11T12:09:13.897Z,3394.00
2022-10-11T12:09:23.897Z,3388.00
2022-10-11T12:09:33.899Z,3380.00
2022-10-11T12:09:43.897Z,3382.00
2022-10-11T12:09:53.906Z,3375.00
2022-10-11T12:10:03.910Z,3371.00
2022-10-11T12:10:13.901Z,3351.00
2022-10-11T12:10:23.902Z,3346.00
2022-10-11T12:10:33.902Z,3328.00
2022-10-11T12:10:43.904Z,3296.00
2022-10-11T12:10:53.907Z,3275.00
2022-10-11T12:11:04.187Z,3244.00
2022-10-11T12:11:13.907Z,3212.00
2022-10-11T12:11:23.912Z,3197.00
2022-10-11T12:11:35.549Z,3192.00
2022-10-11T12:11:43.907Z,3191.00
2022-10-11T12:11:53.912Z,3219.00
2022-10-11T12:12:03.936Z,3249.00
2022-10-11T12:12:13.912Z,3281.00
2022-10-11T12:12:23.914Z,3296.00
2022-10-11T12:12:33.941Z,3301.00
2022-10-11T12:12:43.912Z,3292.00
2022-10-11T12:12:53.919Z,3283.00
2022-10-11T12:13:03.929Z,3265.00
2022-10-11T12:13:13.911Z,3256.00
2022-10-11T12:13:27.240Z,3244.00
2022-10-11T12:13:34.920Z,3235.00
2022-10-11T12:13:43.921Z,3232.00
2022-10-11T12:13:53.924Z,3226.00
2022-10-11T12:14:03.921Z,3226.00
2022-10-11T12:14:13.932Z,3229.00
2022-10-11T12:14:23.916Z,3215.00
2022-10-11T12:14:33.921Z,3212.00
2022-10-11T12:14:43.921Z,3205.00
2022-10-11T12:14:53.923Z,3204.00
2022-10-11T12:15:03.915Z,3215.00
2022-10-11T12:15:13.921Z,3227.00
2022-10-11T12:15:23.944Z,3252.00
2022-10-11T12:15:33.922Z,3268.00
2022-10-11T12:15:43.919Z,3284.00
2022-10-11T12:15:53.921Z,3288.00
2022-10-11T12:16:03.923Z,3272.00
2022-10-11T12:16:13.930Z,3253.00
2022-10-11T12:16:23.959Z,3240.00
2022-10-11T12:16:33.924Z,3239.00
2022-10-11T12:16:43.928Z,3243.00
2022-10-11T12:16:53.932Z,3243.00
2022-10-11T12:17:03.925Z,3257.00
2022-10-11T12:17:13.925Z,3267.00
2022-10-11T12:17:23.945Z,3275.00
2022-10-11T12:17:33.929Z,3267.00
2022-10-11T12:17:43.931Z,3259.00
2022-10-11T12:17:53.937Z,3244.00
2022-10-11T12:18:03.933Z,3237.00
2022-10-11T12:18:13.928Z,3231.00
2022-10-11T12:18:23.930Z,3229.00
2022-10-11T12:18:33.946Z,3234.00
2022-10-11T12:18:43.934Z,3246.00
2022-10-11T12:18:53.950Z,3265.00
2022-10-11T12:19:03.940Z,3303.00
2022-10-11T12:19:13.940Z,3334.00
2022-10-11T12:19:23.934Z,3372.00
2022-10-11T12:19:33.948Z,3407.00
2022-10-11T12:19:43.940Z,3428.00
2022-10-11T12:19:53.935Z,3435.00
2022-10-11T12:20:03.937Z,3448.00
2022-10-11T12:20:13.939Z,3475.00
2022-10-11T12:20:23.941Z,3498.00
2022-10-11T12:20:34.021Z,3519.00
2022-10-11T12:20:43.946Z,3552.00
2022-10-11T12:20:53.942Z,3565.00
2022-10-11T12:21:04.324Z,3585.00
2022-10-11T12:21:13.947Z,3595.00
2022-10-11T12:21:23.945Z,3598.00
2022-10-11T12:21:33.967Z,3594.00
2022-10-11T12:21:43.947Z,3582.00
2022-10-11T12:21:53.949Z,3558.00
2022-10-11T12:22:03.944Z,3544.00
2022-10-11T12:22:13.947Z,3520.00
2022-10-11T12:22:23.947Z,3461.00
2022-10-11T12:22:33.963Z,3424.00
2022-10-11T12:22:43.964Z,3389.00
2022-10-11T12:22:53.952Z,3360.00
2022-10-11T12:23:03.951Z,3331.00
2022-10-11T12:23:19.109Z,3323.00
2022-10-11T12:23:24.955Z,3318.00
2022-10-11T12:23:33.957Z,3327.00
2022-10-11T12:23:43.979Z,3321.00
2022-10-11T12:23:53.954Z,3306.00
2022-10-11T12:24:03.963Z,3313.00
2022-10-11T12:24:13.975Z,3307.00
2022-10-11T12:24:23.958Z,3313.00
2022-10-11T12:24:33.957Z,3323.00
2022-10-11T12:24:43.963Z,3340.00
2022-10-11T12:24:53.960Z,3370.00
2022-10-11T12:25:03.974Z,3385.00
2022-10-11T12:25:18.396Z,3406.00
2022-10-11T12:25:23.969Z,3429.00
2022-10-11T12:25:33.973Z,3437.00
2022-10-11T12:25:43.984Z,3450.00
2022-10-11T12:25:53.963Z,3457.00
2022-10-11T12:26:03.964Z,3470.00
2022-10-11T12:26:13.986Z,3470.00
2022-10-11T12:26:23.964Z,3492.00
2022-10-11T12:26:33.968Z,3491.00
2022-10-11T12:26:43.979Z,3463.00
2022-10-11T12:26:53.968Z,3455.00
2022-10-11T12:27:03.972Z,3462.00
2022-10-11T12:27:13.993Z,3444.00
2022-10-11T12:27:23.969Z,3421.00
2022-10-11T12:27:33.972Z,3404.00
2022-10-11T12:27:43.970Z,3396.00
2022-10-11T12:27:53.970Z,3378.00
2022-10-11T12:28:03.977Z,3350.00
2022-10-11T12:28:14.035Z,3330.00
2022-10-11T12:28:24.068Z,3305.00
2022-10-11T12:28:34.007Z,3280.00
2022-10-11T12:28:43.992Z,3252.00
2022-10-11T12:28:54.006Z,3222.00
2022-10-11T12:29:03.985Z,3201.00
2022-10-11T12:29:14.004Z,3187.00
2022-10-11T12:29:28.523Z,3175.00
2022-10-11T12:29:33.983Z,3159.00
2022-10-11T12:29:43.982Z,3144.00
2022-10-11T12:29:53.981Z,3127.00
2022-10-11T12:30:03.990Z,3126.00
2022-10-11T12:30:13.989Z,3103.00
2022-10-11T12:30:23.997Z,3077.00
2022-10-11T12:30:33.985Z,3059.00
2022-10-11T12:30:43.991Z,3046.00
2022-10-11T12:30:53.983Z,3017.00
2022-10-11T12:31:04.360Z,3004.00
2022-10-11T12:31:13.991Z,3002.00
2022-10-11T12:31:23.996Z,3004.00
2022-10-11T12:31:33.986Z,3017.00
2022-10-11T12:31:46.270Z,3025.00
2022-10-11T12:31:53.988Z,3025.00
2022-10-11T12:32:03.998Z,3026.00
2022-10-11T12:32:13.988Z,3027.00
2022-10-11T12:32:23.989Z,3034.00
2022-10-11T12:32:34.004Z,3037.00
2022-10-11T12:32:43.994Z,3037.00
2022-10-11T12:32:54.003Z,3037.00
2022-10-11T12:33:03.994Z,3028.00
2022-10-11T12:33:13.994Z,3019.00
2022-10-11T12:33:23.995Z,3015.00
2022-10-11T12:33:33.997Z,3013.00
2022-10-11T12:33:43.995Z,3011.00
2022-10-11T12:33:54.010Z,3011.00
2022-10-11T12:34:04.008Z,3015.00
2022-10-11T12:34:13.996Z,3017.00
2022-10-11T12:34:24.001Z,3034.00
2022-10-11T12:34:34.055Z,3030.00
2022-10-11T12:34:44.003Z,3018.00
2022-10-11T12:34:54.020Z,2999.00
2022-10-11T12:35:04.002Z,2995.00
2022-10-11T12:35:14.002Z,2985.00
2022-10-11T12:35:24.002Z,2970.00
2022-10-11T12:35:34.004Z,2955.00
2022-10-11T12:35:44.001Z,2945.00
2022-10-11T12:35:54.019Z,2929.00
2022-10-11T12:36:07.504Z,2942.00
2022-10-11T12:36:14.587Z,2928.00
2022-10-11T12:36:24.001Z,2941.00
2022-10-11T12:36:34.003Z,2928.00
2022-10-11T12:36:44.005Z,2860.00
2022-10-11T12:36:54.025Z,3017.00
2022-10-11T12:37:06.678Z,3051.00
2022-10-11T12:38:20.911Z,2882.00
2022-10-11T12:38:30.906Z,2929.00
2022-10-11T12:38:40.903Z,2852.00
2022-10-11T12:38:50.897Z,2841.00
2022-10-11T12:39:00.916Z,2865.00
2022-10-11T12:39:10.900Z,2852.00
2022-10-11T12:39:20.920Z,2848.00
2022-10-11T12:39:30.909Z,2832.00
2022-10-11T12:40:49.249Z,2807.00
2022-10-11T12:40:59.250Z,2774.00
2022-10-11T12:41:09.233Z,2801.00
2022-10-11T12:41:19.234Z,2802.00
2022-10-11T12:41:29.249Z,2801.00
2022-10-11T12:41:39.238Z,2795.00
2022-10-11T12:41:49.243Z,2798.00
2022-10-11T12:42:01.505Z,2770.00
2022-10-11T12:42:09.240Z,2771.00
2022-10-11T12:42:19.255Z,2815.00
2022-10-11T12:42:29.238Z,2820.00
2022-10-11T12:42:39.270Z,2829.00
2022-10-11T12:42:49.241Z,2827.00
2022-10-11T12:42:59.243Z,2848.00
2022-10-11T12:43:09.253Z,2845.00
2022-10-11T12:43:19.256Z,2829.00
2022-10-11T12:43:29.246Z,2838.00
2022-10-11T12:43:39.243Z,2836.00
2022-10-11T12:43:49.249Z,2811.00
2022-10-11T12:43:59.247Z,2787.00
2022-10-11T12:44:09.251Z,2768.00
2022-10-11T12:44:19.260Z,2685.00
2022-10-11T12:44:29.249Z,2634.00
2022-10-11T12:44:39.246Z,2624.00
2022-10-11T12:44:49.251Z,2625.00
2022-10-11T12:44:59.249Z,2632.00
2022-10-11T12:45:09.247Z,2620.00
2022-10-11T12:45:19.266Z,2670.00
2022-10-11T12:45:29.256Z,2665.00
2022-10-11T12:45:39.250Z,2642.00
2022-10-11T12:45:49.249Z,2648.00
2022-10-11T12:45:59.250Z,2668.00
2022-10-11T12:46:09.251Z,2664.00
2022-10-11T12:46:19.252Z,2752.00
2022-10-11T12:46:29.279Z,2806.00
2022-10-11T12:46:39.253Z,2754.00
2022-10-11T12:46:49.254Z,2858.00
2022-10-11T12:46:59.259Z,2764.00
2022-10-11T12:47:09.254Z,2644.00
2022-10-11T12:47:19.259Z,2566.00
2022-10-11T12:47:29.270Z,2656.00
2022-10-11T12:47:39.256Z,2735.00
2022-10-11T12:47:49.259Z,2730.00
2022-10-11T12:47:59.257Z,2725.00
2022-10-11T12:48:09.258Z,2726.00
2022-10-11T12:48:19.261Z,2696.00
2022-10-11T12:48:34.882Z,2707.00
2022-10-11T12:48:41.197Z,2738.00
2022-10-11T12:48:49.272Z,2729.00
2022-10-11T12:48:59.272Z,2710.00
2022-10-11T12:49:09.263Z,2688.00
2022-10-11T12:49:19.272Z,2727.00
2022-10-11T12:49:29.292Z,2724.00
2022-10-11T12:49:39.269Z,2729.00
2022-10-11T12:49:49.273Z,2702.00
2022-10-11T12:49:59.271Z,2715.00
2022-10-11T12:50:09.318Z,2719.00
2022-10-11T12:50:19.268Z,2722.00
2022-10-11T12:50:29.295Z,2724.00
2022-10-11T12:50:39.274Z,2753.00
2022-10-11T12:50:49.279Z,2713.00
2022-10-11T12:51:02.934Z,2678.00
2022-10-11T12:51:09.276Z,2680.00
2022-10-11T12:51:19.276Z,2713.00
2022-10-11T12:51:29.297Z,2733.00
2022-10-11T12:51:39.279Z,2745.00
2022-10-11T12:51:49.276Z,2773.00
2022-10-11T12:51:59.276Z,2807.00
2022-10-11T12:52:09.280Z,2829.00
2022-10-11T12:52:19.277Z,2873.00
2022-10-11T12:52:29.297Z,2868.00
2022-10-11T12:52:39.278Z,2902.00
2022-10-11T12:52:49.280Z,2910.00
2022-10-11T12:52:59.283Z,2882.00
2022-10-11T12:53:09.279Z,2924.00
2022-10-11T12:53:19.283Z,2953.00
2022-10-11T12:53:29.301Z,2962.00
2022-10-11T12:53:39.282Z,2984.00
2022-10-11T12:54:07.956Z,3016.00
2022-10-11T12:54:21.877Z,3010.00
2022-10-11T12:54:25.535Z,3050.00
2022-10-11T12:54:30.989Z,3099.00
2022-10-11T12:54:34.656Z,3115.00
2022-10-11T12:54:40.305Z,3119.00
2022-10-11T12:54:49.285Z,3137.00
2022-10-11T12:54:59.288Z,3153.00
2022-10-11T12:55:09.286Z,3152.00
2022-10-11T12:55:19.289Z,3159.00
2022-10-11T12:55:29.297Z,3172.00
2022-10-11T12:55:39.289Z,3169.00
2022-10-11T12:55:49.302Z,3185.00
2022-10-11T12:55:59.286Z,3184.00
2022-10-11T12:56:09.642Z,3196.00
2022-10-11T12:56:19.295Z,3214.00
2022-10-11T12:56:29.294Z,3221.00
2022-10-11T12:56:39.297Z,3234.00
2022-10-11T12:56:49.309Z,3231.00
2022-10-11T12:56:59.297Z,3231.00
2022-10-11T12:57:12.155Z,3248.00
2022-10-11T12:57:19.300Z,3253.00
2022-10-11T12:57:29.298Z,3263.00
2022-10-11T12:57:42.553Z,3259.00
2022-10-11T12:57:50.317Z,3274.00
2022-10-11T12:57:59.302Z,3287.00
2022-10-11T12:58:09.308Z,3306.00
2022-10-11T12:58:19.302Z,3324.00
2022-10-11T12:58:29.300Z,3322.00
2022-10-11T12:58:39.306Z,3338.00
2022-10-11T12:58:49.306Z,3359.00
2022-10-11T12:58:59.374Z,3385.00
2022-10-11T12:59:09.305Z,3396.00
2022-10-11T12:59:19.309Z,3407.00
2022-10-11T12:59:29.305Z,3411.00
2022-10-11T12:59:39.305Z,3421.00
2022-10-11T12:59:49.409Z,3432.00
2022-10-11T12:59:59.327Z,3449.00
2022-10-11T13:00:09.382Z,3455.00
2022-10-11T13:00:19.320Z,3496.00
2022-10-11T13:00:29.307Z,3419.00
2022-10-11T13:00:39.311Z,3485.00
2022-10-11T13:00:49.406Z,3494.00
2022-10-11T13:00:59.382Z,3499.00
2022-10-11T13:01:09.375Z,3509.00
2022-10-11T13:01:19.380Z,3514.00
2022-10-11T13:01:29.368Z,3512.00
2022-10-11T13:01:39.359Z,3487.00
2022-10-11T13:01:49.315Z,3513.00
2022-10-11T13:01:59.335Z,3506.00
2022-10-11T13:02:09.315Z,3489.00
2022-10-11T13:02:19.313Z,3484.00
2022-10-11T13:02:29.318Z,3488.00
2022-10-11T13:02:39.324Z,3485.00
2022-10-11T13:02:49.323Z,3474.00
2022-10-11T13:02:59.333Z,3457.00
2022-10-11T13:03:09.319Z,3449.00
2022-10-11T13:03:19.317Z,3467.00
2022-10-11T13:03:32.235Z,3452.00
2022-10-11T13:03:39.316Z,3430.00
2022-10-11T13:03:49.320Z,3424.00
2022-10-11T13:03:59.336Z,3430.00
2022-10-11T13:04:09.323Z,3423.00
2022-10-11T13:04:19.325Z,3425.00
2022-10-11T13:04:29.319Z,3412.00
2022-10-11T13:04:39.323Z,3401.00
2022-10-11T13:04:49.326Z,3398.00
2022-10-11T13:04:59.324Z,3397.00
2022-10-11T13:05:09.877Z,3391.00
2022-10-11T13:05:19.328Z,3379.00
2022-10-11T13:05:29.328Z,3355.00
2022-10-11T13:05:44.563Z,3363.00
2022-10-11T13:05:53.705Z,3358.00
2022-10-11T13:06:01.857Z,3360.00
2022-10-11T13:06:09.845Z,3338.00
2022-10-11T13:06:19.343Z,3332.00
2022-10-11T13:06:29.334Z,3332.00
2022-10-11T13:06:39.338Z,3325.00
2022-10-11T13:06:49.341Z,3318.00
2022-10-11T13:07:03.186Z,3316.00
2022-10-11T13:07:10.336Z,3305.00
2022-10-11T13:07:19.350Z,3305.00
2022-10-11T13:07:29.339Z,3309.00
2022-10-11T13:07:39.339Z,3302.00
2022-10-11T13:07:49.370Z,3285.00
2022-10-11T13:07:59.340Z,3292.00
2022-10-11T13:08:09.340Z,3285.00
2022-10-11T13:08:19.353Z,3272.00
2022-10-11T13:08:29.343Z,3245.00
2022-10-11T13:08:39.347Z,3234.00
2022-10-11T13:08:49.346Z,3232.00
2022-10-11T13:08:59.343Z,3229.00
2022-10-11T13:09:09.347Z,3207.00
2022-10-11T13:09:19.359Z,3195.00
2022-10-11T13:09:29.348Z,3190.00
2022-10-11T13:09:39.360Z,3184.00
2022-10-11T13:09:49.351Z,3176.00
2022-10-11T13:09:59.349Z,3165.00
2022-10-11T13:10:09.388Z,3163.00
2022-10-11T13:10:19.356Z,3158.00
2022-10-11T13:10:29.366Z,3158.00
2022-10-11T13:10:39.354Z,3158.00
2022-10-11T13:10:49.348Z,3171.00
2022-10-11T13:10:59.351Z,3161.00
2022-10-11T13:11:09.357Z,3159.00
2022-10-11T13:11:19.350Z,3167.00
2022-10-11T13:11:29.372Z,3178.00
2022-10-11T13:11:39.359Z,3189.00
2022-10-11T13:11:49.352Z,3180.00
2022-10-11T13:11:59.356Z,3193.00
2022-10-11T13:12:09.358Z,3200.00
2022-10-11T13:12:19.360Z,3213.00
2022-10-11T13:12:29.374Z,3227.00
2022-10-11T13:12:39.355Z,3235.00
2022-10-11T13:12:49.365Z,3242.00
2022-10-11T13:12:59.359Z,3259.00
2022-10-11T13:13:09.373Z,3276.00
2022-10-11T13:13:19.361Z,3290.00
2022-10-11T13:13:29.370Z,3295.00
2022-10-11T13:13:39.376Z,3299.00
2022-10-11T13:13:49.360Z,3306.00
2022-10-11T13:13:59.370Z,3296.00
2022-10-11T13:15:14.415Z,3288.00
2022-10-11T13:15:24.367Z,3286.00
2022-10-11T13:15:34.391Z,3289.00
2022-10-11T13:15:44.363Z,3302.00
2022-10-11T13:15:54.365Z,3295.00
2022-10-11T13:16:04.708Z,3275.00
2022-10-11T13:16:14.363Z,3274.00
2022-10-11T13:16:24.380Z,3282.00
2022-10-11T13:16:34.371Z,3294.00
2022-10-11T13:16:44.366Z,3303.00
2022-10-11T13:16:54.384Z,3284.00
2022-10-11T13:17:04.379Z,3278.00
2022-10-11T13:17:14.366Z,3273.00
2022-10-11T13:17:24.385Z,3246.00
2022-10-11T13:17:38.212Z,3237.00
2022-10-11T13:17:44.372Z,3229.00
2022-10-11T13:17:54.394Z,3216.00
2022-10-11T13:18:04.379Z,3215.00
2022-10-11T13:18:14.378Z,3213.00
2022-10-11T13:18:24.380Z,3205.00
2022-10-11T13:18:34.397Z,3217.00
2022-10-11T13:18:44.378Z,3225.00
2022-10-11T13:18:54.398Z,3213.00
2022-10-11T13:19:04.391Z,3224.00
2022-10-11T13:19:14.393Z,3228.00
2022-10-11T13:20:55.733Z,3195.00
2022-10-11T13:21:06.155Z,3203.00
2022-10-11T13:21:18.061Z,3193.00
2022-10-11T13:21:25.715Z,3199.00
2022-10-11T13:21:35.748Z,3190.00
2022-10-11T13:21:45.715Z,3185.00
2022-10-11T13:21:55.712Z,3190.00
2022-10-11T13:22:05.718Z,3199.00
2022-10-11T13:22:15.713Z,3188.00
2022-10-11T13:22:25.731Z,3176.00
2022-10-11T13:22:35.718Z,3173.00
2022-10-11T13:22:45.718Z,3164.00
2022-10-11T13:22:55.719Z,3153.00
2022-10-11T13:23:05.724Z,3156.00
2022-10-11T13:23:15.721Z,3162.00
2022-10-11T13:23:25.736Z,3148.00
2022-10-11T13:23:35.733Z,3141.00
2022-10-11T13:23:45.723Z,3128.00
2022-10-11T13:23:55.722Z,3123.00
2022-10-11T13:24:05.729Z,3119.00
2022-10-11T13:24:15.724Z,3122.00
2022-10-11T13:24:26.399Z,3116.00
2022-10-11T13:24:35.727Z,3115.00
2022-10-11T13:24:45.728Z,3106.00
2022-10-11T13:24:55.726Z,3068.00
2022-10-11T13:25:05.732Z,3050.00
2022-10-11T13:25:15.731Z,3042.00
2022-10-11T13:25:25.741Z,3033.00
2022-10-11T13:25:35.732Z,3031.00
2022-10-11T13:25:45.729Z,3040.00
2022-10-11T13:25:55.736Z,3041.00
2022-10-11T13:26:05.732Z,3062.00
2022-10-11T13:26:15.734Z,3076.00
2022-10-11T13:26:25.750Z,3082.00
2022-10-11T13:26:35.738Z,3086.00
2022-10-11T13:26:45.748Z,3103.00
2022-10-11T13:26:55.741Z,3095.00
2022-10-11T13:27:05.741Z,3092.00
2022-10-11T13:27:15.742Z,3110.00
2022-10-11T13:27:25.762Z,3122.00
2022-10-11T13:27:35.739Z,3131.00
2022-10-11T13:27:45.742Z,3123.00
2022-10-11T13:27:55.742Z,3145.00
2022-10-11T13:28:05.744Z,3149.00
2022-10-11T13:28:15.802Z,3148.00